Thomas White

Olheiro-Chefe - Liverpool
17 Jul 2027
Sábado
Processo

Personalidade

Adaptabilidade (18) Ambição (11) Controvérsia (13) Lealdade (19) Pressão (13) Profissionalismo (13) Espírito Esportivo (16) Temperamento (3)

Perfil

Estilo de Treinamento Democrático
Licença Continental C
Determinação 10
Gestão de Pessoas 17
Motivação 9
Disciplina 17
Satisfação no Trabalho
85%
Fadiga
0%
Função Olheiro-Chefe
Salário 105.2K p/s
Contrato 14.03.2030

Desempenho

Comportamento Bom
Eficácia do Treinamento
43%
Desenvolvimento do Jogador
35%
Prevenção de Lesões
35%
Implementação Tática
70%

Eventos Recentes

Avaliou um jogador agora
Participou de uma reunião de recrutamento agora
Recomendou um alvo de transferência agora
Recomendou um alvo de transferência agora
Recomendou um alvo de transferência agora
Avaliou um jogador 7d atrás
Avaliou um jogador 7d atrás
Avaliou um jogador 7d atrás

Monitorando agora

73
Jogador Clube Status Habilidade Confiança Observado Última observação Último voto
Ollie Scarles Chelsea Ativo 135 / 137 40% 4 06.07.2027 -
Valentin Atangana Al-Ahli Ativo 130 / 142 40% 1 06.07.2027 -
Mateo Silvetti Inter Miami CF Ativo 127 / 133 40% 1 06.07.2027 -
Nicolás Domínguez Nottingham Forest Perdido 148 / 151 83% 1 21.06.2027 Aprovar
Pedro Zenit Perdido 142 / 145 40% 1 14.06.2027 -
Sidiki Chérif Coventry City Ativo 129 / 137 40% 1 14.06.2027 -
Vangelis Pavlidis Liverpool Negociando 152 / 152 90% 1 01.06.2027 -
Konstantin Tyukavin Arsenal Ativo 132 / 133 66% 1 01.06.2027 Aprovar
Fotis Ioannidis Crystal Palace Ativo 136 / 136 67% 1 01.06.2027 Aprovar
Mohammed Kudus Tottenham Ativo 157 / 151 40% 14 31.05.2027 -
Gonçalo Ramos AC Milan Ativo 155 / 160 40% 10 31.05.2027 -
Kevin Schade Brentford Ativo 149 / 153 40% 7 31.05.2027 -
Kai Havertz Arsenal Ativo 161 / 169 40% 7 29.05.2027 -
Riyad Idrissi Torino Ativo 128 / 124 40% 2 29.05.2027 -
João Pedro Chelsea Ativo 151 / 148 40% 13 27.05.2027 -
João Félix Aston Villa Ativo 161 / 151 40% 9 27.05.2027 -
Gonzalo Fulham Ativo 145 / 153 40% 7 27.05.2027 -
Charles De Ketelaere Atalanta Ativo 154 / 150 40% 7 26.05.2027 -
Kenan Yıldız Juventus Ativo 164 / 165 40% 12 25.05.2027 -
Thiago Brentford Ativo 150 / 143 40% 9 24.05.2027 -
Assane Diao Como Ativo 147 / 145 40% 6 24.05.2027 -
Georginio Rutter Manchester City Ativo 155 / 141 40% 12 22.05.2027 -
Nicolas Jackson Aston Villa Ativo 152 / 151 40% 14 21.05.2027 -
Santiago Castro AS Roma Ativo 151 / 147 40% 6 20.05.2027 -
Christos Mouzakitis Hull City Ativo 128 / 136 40% 1 20.05.2027 -
Dango Ouattara Brentford Ativo 146 / 145 40% 6 18.05.2027 -
Gabriel Martinelli Arsenal Ativo 162 / 169 40% 5 17.05.2027 -
Rayan Cherki Manchester City Ativo 169 / 170 40% 7 09.05.2027 -
Igor Jesus Nottingham Forest Ativo 141 / 134 40% 9 09.05.2027 -
Antoine Semenyo Manchester City Ativo 160 / 162 40% 13 07.05.2027 -
Liam Delap Nottingham Forest Ativo 146 / 153 40% 2 05.05.2027 -
Lucas Bergvall Tottenham Ativo 141 / 146 40% 1 01.05.2027 -
Luka Vušković Tottenham Ativo 143 / 141 40% 1 01.05.2027 -
Morgan Rogers Chelsea Ativo 164 / 163 40% 3 29.04.2027 -
Matvey Kislyak Lokomotiv Moscow Ativo 130 / 146 40% 1 23.04.2027 -
Lucas Høgsberg Paris Saint-Germain Ativo 133 / 142 40% 2 16.04.2027 -
Caleb Yirenkyi Coventry City Ativo 135 / 143 40% 1 16.04.2027 -
Nicolò Zaniolo Udinese Ativo 145 / 145 40% 2 09.04.2027 -
Khvicha Kvaratskhelia Inter Ativo 167 / 166 40% 1 12.01.2027 -
Fran Vieites Exeter City Ativo 119 / 125 40% 1 11.01.2027 -
James Trafford Leeds United Ativo 146 / 143 40% 1 11.01.2027 -
Jack Hinshelwood Brighton Ativo 143 / 150 40% 2 05.01.2027 -
Jorrel Hato Chelsea Ativo 145 / 160 40% 1 05.01.2027 -
Nico O'Reilly Manchester City Ativo 155 / 152 40% 1 05.01.2027 -
Rodrigo Muniz Fulham Ativo 141 / 138 40% 2 01.01.2027 -
Adnan Carrasco FC Nantes Ativo 151 / 156 64% 1 01.01.2027 Aprovar
Mao Hosoya Manchester City Ativo 134 / 135 67% 1 01.01.2027 Aprovar
William Saliba Arsenal Ativo 174 / 180 40% 46 31.12.2026 -
Sandro Tonali Tottenham Ativo 169 / 171 40% 40 31.12.2026 -
Marc Guéhi Manchester City Ativo 169 / 162 40% 13 31.12.2026 -
Reece James Chelsea Ativo 174 / 167 40% 44 30.12.2026 -
Bruno Guimarães Arsenal Ativo 173 / 164 40% 33 30.12.2026 -
Gabriel Arsenal Ativo 173 / 173 40% 42 29.12.2026 -
Rúben Dias Manchester City Ativo 165 / 162 40% 34 22.12.2026 -
Malick Fofana Sunderland Ativo 144 / 145 40% 2 12.12.2026 -
El Hadji Malick Diouf Brentford Ativo 141 / 146 40% 1 12.12.2026 -
Andile Manyama Ajax Cape Town Ativo 111 / 110 40% 1 08.12.2026 -
Jerome Karelse Golden Arrows Ativo 107 / 93 40% 2 05.12.2026 -
Wandile Duba Maritzburg United Ativo 110 / 99 40% 1 05.12.2026 -
Marco Carnesecchi Torino Ativo 154 / 161 40% 1 04.12.2026 -
Bazoumana Touré Newcastle United Ativo 138 / 134 40% 1 19.11.2026 -
Matías Fernández-Pardo Newcastle United Ativo 141 / 141 40% 1 19.11.2026 -
Calvin Harris Sporting Kansas City Ativo 106 / 116 40% 2 27.10.2026 -
Dejan Joveljić Seattle Sounders Ativo 131 / 119 40% 2 24.10.2026 -
Aaron Connolly Ruch Ativo 118 / 130 40% 1 24.10.2026 -
Wessam Abou Ali Columbus Crew Ativo 136 / 132 40% 1 15.10.2026 -
Liel Abada Charlotte Football Club Ativo 135 / 121 40% 1 15.10.2026 -
Camilo Durán Bloemfontein Celtic Ativo 125 / 116 40% 1 30.09.2026 -
Luther Tau SuperSport United Ativo 109 / 121 40% 1 29.09.2026 -
Martín Ojeda Orlando City Ativo 136 / 122 40% 1 29.09.2026 -
Ben Gannon Doak Bournemouth Ativo 132 / 142 40% 1 13.09.2026 -
Ferran Torres Paris Saint-Germain Ativo 160 / 159 40% 1 12.08.2026 -
Rafael Leão Galatasaray Ativo 155 / 160 40% 1 03.08.2026 -